createdAt,value
2018-03-16T00:00:49.320Z,99021.25
2018-03-16T00:03:18.682Z,99025.25
2018-03-16T00:05:48.042Z,99027.88
2018-03-16T00:08:17.203Z,99030.51
2018-03-16T00:10:46.784Z,99031.86
2018-03-16T00:13:15.903Z,99025.59
2018-03-16T00:15:45.340Z,99031.80
2018-03-16T00:18:14.586Z,99040.02
2018-03-16T00:20:43.607Z,99043.94
2018-03-16T00:26:07.784Z,99044.06
2018-03-16T00:28:36.788Z,99055.92
2018-03-16T00:31:06.309Z,99060.50
2018-03-16T00:33:35.567Z,99063.16
2018-03-16T00:36:04.994Z,99069.47
2018-03-16T00:38:34.123Z,99074.78
2018-03-16T00:41:03.011Z,99083.56
2018-03-16T00:43:32.113Z,99085.75
2018-03-16T00:46:01.418Z,99081.64
2018-03-16T00:48:30.534Z,99081.43
2018-03-16T00:51:00.086Z,99087.77
2018-03-16T00:53:29.392Z,99094.48
2018-03-16T00:55:58.491Z,99099.89
2018-03-16T00:58:28.980Z,99090.95
2018-03-16T01:00:59.048Z,99093.27
2018-03-16T01:03:28.335Z,99094.00
2018-03-16T01:05:57.715Z,99101.32
2018-03-16T01:08:27.011Z,99106.20
2018-03-16T01:10:56.597Z,99108.44
2018-03-16T01:13:25.921Z,99107.68
2018-03-16T01:15:55.109Z,99117.66
2018-03-16T01:18:24.291Z,99117.99
2018-03-16T01:20:54.673Z,99123.22
2018-03-16T01:23:23.970Z,99119.38
2018-03-16T01:25:53.045Z,99111.92
2018-03-16T01:28:21.913Z,99115.55
2018-03-16T01:30:51.653Z,99123.09
2018-03-16T01:33:20.903Z,99122.73
2018-03-16T01:35:50.119Z,99128.76
2018-03-16T01:38:19.468Z,99130.83
2018-03-16T01:40:48.576Z,99141.88
2018-03-16T01:43:17.564Z,99150.38
2018-03-16T01:45:46.816Z,99164.53
2018-03-16T01:48:15.823Z,99163.53
2018-03-16T01:50:45.148Z,99152.23
2018-03-16T01:53:18.478Z,99154.69
2018-03-16T01:55:47.635Z,99152.36
2018-03-16T01:58:16.616Z,99155.36
2018-03-16T02:00:45.891Z,99150.84
2018-03-16T02:03:15.795Z,99159.95
2018-03-16T02:05:44.956Z,99162.61
2018-03-16T02:08:14.339Z,99165.59
2018-03-16T02:10:43.456Z,99174.61
2018-03-16T02:13:12.632Z,99181.47
2018-03-16T02:15:41.782Z,99184.39
2018-03-16T02:18:10.879Z,99179.87
2018-03-16T02:20:40.197Z,99182.42
2018-03-16T02:23:09.471Z,99185.89
2018-03-16T02:25:38.835Z,99179.45
2018-03-16T02:28:07.868Z,99169.63
2018-03-16T02:30:37.024Z,99168.78
2018-03-16T02:33:06.140Z,99176.81
2018-03-16T02:35:35.115Z,99174.78
2018-03-16T02:38:04.420Z,99181.86
2018-03-16T02:40:33.515Z,99181.89
2018-03-16T02:43:02.380Z,99179.32
2018-03-16T02:45:31.413Z,99177.86
2018-03-16T02:48:00.469Z,99189.83
2018-03-16T02:50:29.916Z,99190.06
2018-03-16T02:52:59.207Z,99194.97
2018-03-16T02:55:28.035Z,99199.13
2018-03-16T02:57:56.755Z,99199.27
2018-03-16T03:00:26.025Z,99205.89
2018-03-16T03:02:55.146Z,99203.16
2018-03-16T03:05:25.849Z,99200.52
2018-03-16T03:07:54.776Z,99197.55
2018-03-16T03:10:24.101Z,99198.40
2018-03-16T03:12:53.273Z,99195.81
2018-03-16T03:15:22.530Z,99185.84
2018-03-16T03:17:51.694Z,99182.10
2018-03-16T03:20:20.566Z,99189.49
2018-03-16T03:22:49.603Z,99197.98
2018-03-16T03:25:18.926Z,99198.66
2018-03-16T03:27:48.048Z,99203.67
2018-03-16T03:30:17.147Z,99209.09
2018-03-16T03:32:46.450Z,99210.76
2018-03-16T03:35:15.594Z,99213.59
2018-03-16T03:37:44.624Z,99224.73
2018-03-16T03:40:14.177Z,99230.70
2018-03-16T03:42:43.700Z,99238.05
2018-03-16T03:45:13.071Z,99235.63
2018-03-16T03:47:42.320Z,99243.20
2018-03-16T03:50:11.403Z,99244.07
2018-03-16T03:52:40.789Z,99249.06
2018-03-16T03:55:09.737Z,99260.09
2018-03-16T03:57:39.046Z,99264.00
2018-03-16T04:00:08.565Z,99265.91
2018-03-16T04:02:37.943Z,99270.73
2018-03-16T04:05:07.408Z,99272.94
2018-03-16T04:07:36.361Z,99282.60
2018-03-16T04:10:05.496Z,99280.58
2018-03-16T04:12:34.904Z,99278.83
2018-03-16T04:15:04.333Z,99279.33
2018-03-16T04:17:33.718Z,99282.97
2018-03-16T04:20:04.098Z,99284.48
2018-03-16T04:22:33.199Z,99283.56
2018-03-16T04:25:02.672Z,99288.97
2018-03-16T04:27:31.949Z,99287.75
2018-03-16T04:30:01.203Z,99285.52
2018-03-16T04:34:56.571Z,99280.68
2018-03-16T04:37:25.544Z,99271.34
2018-03-16T04:39:54.715Z,99279.05
2018-03-16T04:43:32.223Z,99282.00
2018-03-16T04:46:01.260Z,99282.45
2018-03-16T04:48:30.559Z,99288.81
2018-03-16T04:50:59.786Z,99290.65
2018-03-16T04:53:29.087Z,99282.68
2018-03-16T04:55:59.794Z,99284.33
2018-03-16T04:58:29.250Z,99280.25
2018-03-16T05:00:58.893Z,99294.04
2018-03-16T05:03:28.307Z,99294.56
2018-03-16T05:05:57.537Z,99305.06
2018-03-16T05:08:26.698Z,99317.28
2018-03-16T05:10:56.016Z,99316.45
2018-03-16T05:13:25.617Z,99322.05
2018-03-16T05:15:54.829Z,99328.13
2018-03-16T05:18:24.386Z,99332.46
2018-03-16T05:20:54.136Z,99325.33
2018-03-16T05:23:23.448Z,99325.97
2018-03-16T05:25:52.882Z,99327.70
2018-03-16T05:28:22.172Z,99317.50
2018-03-16T05:30:51.330Z,99317.77
2018-03-16T05:33:20.591Z,99320.56
2018-03-16T05:35:49.806Z,99316.84
2018-03-16T05:38:19.041Z,99322.56
2018-03-16T05:40:48.053Z,99322.95
2018-03-16T05:43:17.352Z,99319.95
2018-03-16T05:45:46.616Z,99315.61
2018-03-16T05:48:15.930Z,99310.24
2018-03-16T05:50:45.333Z,99301.87
2018-03-16T05:53:14.355Z,99289.17
2018-03-16T05:55:43.648Z,99292.77
2018-03-16T05:58:12.837Z,99286.91
2018-03-16T06:00:42.370Z,99295.48
2018-03-16T06:03:11.356Z,99288.53
2018-03-16T06:05:40.613Z,99287.10
2018-03-16T06:08:10.085Z,99284.50
2018-03-16T06:10:39.225Z,99285.78
2018-03-16T06:13:08.685Z,99277.45
2018-03-16T06:15:37.759Z,99276.31
2018-03-16T06:18:06.754Z,99274.11
2018-03-16T06:20:35.875Z,99268.61
2018-03-16T06:23:06.470Z,99266.03
2018-03-16T06:25:35.921Z,99264.11
2018-03-16T06:28:05.355Z,99256.61
2018-03-16T06:30:34.546Z,99254.76
2018-03-16T06:33:03.630Z,99256.27
2018-03-16T06:35:33.150Z,99247.32
2018-03-16T06:38:02.152Z,99242.07
2018-03-16T06:42:46.634Z,99232.40
2018-03-16T06:45:19.461Z,99236.13
2018-03-16T06:47:49.042Z,99232.71
2018-03-16T06:50:18.312Z,99229.92
2018-03-16T06:52:47.588Z,99231.59
2018-03-16T06:55:16.992Z,99230.97
2018-03-16T06:57:46.226Z,99232.00
2018-03-16T07:00:15.163Z,99230.73
2018-03-16T07:02:44.880Z,99223.86
2018-03-16T07:05:14.326Z,99227.05
2018-03-16T07:07:43.444Z,99221.27
2018-03-16T07:10:12.581Z,99216.39
2018-03-16T07:12:42.001Z,99205.50
2018-03-16T07:18:13.787Z,99207.36
2018-03-16T07:20:42.947Z,99205.57
2018-03-16T07:23:12.234Z,99201.42
2018-03-16T07:25:41.606Z,99198.94
2018-03-16T07:28:11.095Z,99202.84
2018-03-16T07:30:40.141Z,99198.75
2018-03-16T07:33:10.013Z,99202.17
2018-03-16T07:35:39.453Z,99189.89
2018-03-16T07:38:09.130Z,99189.89
2018-03-16T07:40:39.033Z,99189.56
2018-03-16T07:43:08.399Z,99184.54
2018-03-16T07:45:44.350Z,99187.55
2018-03-16T07:48:13.443Z,99185.45
2018-03-16T07:50:42.593Z,99184.87
2018-03-16T07:53:11.701Z,99174.80
2018-03-16T07:55:41.243Z,99172.39
2018-03-16T07:58:10.653Z,99170.45
2018-03-16T08:00:40.236Z,99154.46
2018-03-16T08:03:09.326Z,99144.12
2018-03-16T08:08:29.140Z,99136.48
2018-03-16T08:10:58.275Z,99129.81
2018-03-16T08:13:27.180Z,99137.25
2018-03-16T08:15:56.671Z,99137.00
2018-03-16T08:18:25.829Z,99134.76
2018-03-16T08:20:55.135Z,99134.71
2018-03-16T08:23:24.701Z,99136.97
2018-03-16T08:25:53.556Z,99132.78
2018-03-16T08:28:22.729Z,99134.94
2018-03-16T08:33:06.119Z,99132.34
2018-03-16T08:35:36.436Z,99133.90
2018-03-16T08:38:05.873Z,99136.36
2018-03-16T08:40:39.394Z,99125.83
2018-03-16T08:43:08.925Z,99124.80
2018-03-16T08:45:38.136Z,99119.05
2018-03-16T08:48:07.191Z,99121.06
2018-03-16T08:50:36.458Z,99114.16
2018-03-16T08:53:05.414Z,99120.69
2018-03-16T08:55:34.512Z,99112.36
2018-03-16T08:58:03.674Z,99104.67
2018-03-16T09:00:33.114Z,99095.09
2018-03-16T09:03:02.184Z,99086.38
2018-03-16T09:07:54.335Z,99083.06
2018-03-16T09:10:23.794Z,99075.45
2018-03-16T09:12:54.193Z,99077.92
2018-03-16T09:15:23.309Z,99075.95
2018-03-16T09:17:52.579Z,99067.81
2018-03-16T09:20:21.784Z,99053.30
2018-03-16T09:22:50.991Z,99047.27
2018-03-16T09:25:20.133Z,99041.63
2018-03-16T09:27:49.029Z,99035.95
2018-03-16T09:30:19.074Z,99034.31
2018-03-16T09:32:48.306Z,99027.63
2018-03-16T09:35:18.574Z,99017.93
2018-03-16T09:37:49.369Z,99013.30
2018-03-16T09:40:18.550Z,99009.87
2018-03-16T09:42:47.930Z,99001.88
2018-03-16T09:45:19.124Z,98995.53
2018-03-16T09:47:48.529Z,98996.47
2018-03-16T09:50:18.218Z,98994.63
2018-03-16T09:52:47.391Z,98997.95
2018-03-16T09:58:20.890Z,98997.23
2018-03-16T10:00:50.822Z,98990.00
2018-03-16T10:03:20.662Z,98990.27
2018-03-16T10:05:49.826Z,98979.89
2018-03-16T10:08:19.068Z,98982.13
2018-03-16T10:10:48.325Z,98983.56
2018-03-16T10:13:17.323Z,98972.30
2018-03-16T10:15:46.619Z,98967.58
2018-03-16T10:18:16.191Z,98969.23
2018-03-16T10:20:45.485Z,98966.26
2018-03-16T10:23:14.832Z,98968.12
2018-03-16T10:25:43.839Z,98960.80
2018-03-16T10:28:12.997Z,98964.37
2018-03-16T10:30:42.063Z,98964.02
2018-03-16T10:33:11.620Z,98953.88
2018-03-16T10:35:40.781Z,98952.98
2018-03-16T10:38:09.961Z,98946.21
2018-03-16T10:40:39.640Z,98944.48
2018-03-16T10:43:08.901Z,98943.51
2018-03-16T15:59:20.798Z,99132.31
2018-03-16T16:01:50.009Z,99126.27
2018-03-16T16:04:19.136Z,99125.37
2018-03-16T16:06:48.149Z,99124.59
2018-03-16T16:09:17.302Z,99125.25
2018-03-16T16:11:46.392Z,99124.77
2018-03-16T16:14:15.369Z,99125.94
2018-03-16T16:16:44.673Z,99125.39
2018-03-16T16:19:14.310Z,99129.41
2018-03-16T16:21:43.527Z,99132.77
2018-03-16T16:24:12.710Z,99134.52
2018-03-16T16:26:41.719Z,99141.23
2018-03-16T16:29:10.804Z,99143.39
2018-03-16T16:31:40.030Z,99137.30
2018-03-16T16:34:09.271Z,99146.58
2018-03-16T16:36:58.363Z,99136.55
2018-03-16T16:39:27.621Z,99137.47
2018-03-16T16:41:57.210Z,99138.38
2018-03-16T16:44:27.388Z,99142.07
2018-03-16T16:46:56.628Z,99133.39
2018-03-16T16:49:26.286Z,99138.93
2018-03-16T16:51:55.593Z,99138.81
2018-03-16T16:54:32.910Z,99139.74
2018-03-16T16:57:02.562Z,99143.22
2018-03-16T16:59:32.758Z,99143.56
2018-03-16T17:02:02.945Z,99145.41
2018-03-16T17:04:32.530Z,99146.79
2018-03-16T17:07:01.974Z,99155.03
2018-03-16T17:09:31.868Z,99152.45
2018-03-16T17:12:01.351Z,99154.09
2018-03-16T17:14:30.450Z,99166.38
2018-03-16T17:16:59.726Z,99160.79
2018-03-16T17:19:29.604Z,99163.87
2018-03-16T17:21:59.069Z,99168.84
2018-03-16T17:24:28.550Z,99177.16
2018-03-16T17:26:57.993Z,99172.97
2018-03-16T17:29:29.278Z,99170.41
2018-03-16T17:31:58.846Z,99166.23
2018-03-16T17:34:28.511Z,99170.50
2018-03-16T17:36:58.007Z,99170.27
2018-03-16T17:39:27.398Z,99169.98
2018-03-16T17:41:56.906Z,99166.91
2018-03-16T17:44:28.301Z,99166.00
2018-03-16T17:46:57.834Z,99162.52
2018-03-16T17:49:28.108Z,99163.33
2018-03-16T17:51:58.851Z,99165.09
2018-03-16T17:54:28.599Z,99160.70
2018-03-16T17:56:57.992Z,99161.13
2018-03-16T17:59:27.312Z,99167.84
2018-03-16T18:01:57.082Z,99165.86
2018-03-16T18:04:27.444Z,99164.18
2018-03-16T18:06:58.231Z,99162.16
2018-03-16T18:09:27.573Z,99159.64
2018-03-16T18:11:57.138Z,99154.75
2018-03-16T18:14:26.609Z,99157.41
2018-03-16T18:16:56.159Z,99159.64
2018-03-16T18:19:25.374Z,99160.63
2018-03-16T18:21:54.477Z,99160.20
2018-03-16T18:24:23.757Z,99162.84
2018-03-16T18:26:52.981Z,99167.52
2018-03-16T18:29:22.174Z,99161.93
2018-03-16T18:37:20.655Z,99163.05
2018-03-16T18:39:49.748Z,99156.27
2018-03-16T18:42:19.316Z,99160.18
2018-03-16T18:44:48.737Z,99157.94
2018-03-16T18:47:17.905Z,99162.84
2018-03-16T18:52:16.430Z,99164.30
2018-03-16T18:54:45.716Z,99162.48
2018-03-16T18:57:15.410Z,99164.45
2018-03-16T18:59:44.841Z,99156.88
2018-03-16T19:02:14.152Z,99162.11
2018-03-16T19:04:43.354Z,99161.42
2018-03-16T19:09:27.380Z,99167.37
2018-03-16T19:11:56.965Z,99166.36
2018-03-16T19:14:26.278Z,99161.12
2018-03-16T19:16:55.314Z,99166.58
2018-03-16T19:19:24.564Z,99158.95
2018-03-16T19:21:54.577Z,99160.14
2018-03-16T19:24:23.912Z,99158.31
2018-03-16T19:26:53.232Z,99162.82
2018-03-16T19:29:22.734Z,99161.49
2018-03-16T19:31:51.978Z,99161.84
2018-03-16T19:36:54.614Z,99152.95
2018-03-16T19:41:37.905Z,99145.20
2018-03-16T19:44:07.260Z,99146.11
2018-03-16T19:46:36.506Z,99143.28
2018-03-16T19:51:33.698Z,99143.92
2018-03-16T19:54:02.916Z,99137.00
2018-03-16T19:56:32.412Z,99135.08
2018-03-16T19:59:02.115Z,99135.23
2018-03-16T20:03:53.452Z,99126.14
2018-03-16T20:06:22.703Z,99125.27
2018-03-16T20:08:52.169Z,99127.89
2018-03-16T20:11:21.829Z,99125.23
2018-03-16T20:13:51.961Z,99124.74
2018-03-16T20:16:21.056Z,99118.94
2018-03-16T20:18:50.305Z,99113.28
2018-03-16T20:21:19.582Z,99113.14
2018-03-16T20:23:48.655Z,99111.73
2018-03-16T20:26:18.157Z,99111.73
2018-03-16T20:28:47.085Z,99108.87
2018-03-16T20:31:16.284Z,99114.65
2018-03-16T20:36:20.349Z,99104.34
2018-03-16T20:38:49.452Z,99096.17
2018-03-16T20:41:18.480Z,99099.80
2018-03-16T20:43:47.711Z,99104.00
2018-03-16T20:46:16.815Z,99107.33
2018-03-16T20:48:46.440Z,99106.48
2018-03-16T20:51:15.752Z,99098.10
2018-03-16T20:53:44.987Z,99090.84
2018-03-16T20:56:14.295Z,99084.94
2018-03-16T20:58:43.575Z,99087.10
2018-03-16T21:01:12.915Z,99092.52
2018-03-16T21:03:42.142Z,99086.78
2018-03-16T21:06:11.746Z,99086.30
2018-03-16T21:08:40.828Z,99091.05
2018-03-16T21:13:36.076Z,99094.05
2018-03-16T21:16:05.139Z,99083.84
2018-03-16T21:18:34.535Z,99086.64
2018-03-16T21:21:03.662Z,99086.37
2018-03-16T21:23:32.884Z,99086.69
2018-03-16T21:26:02.268Z,99089.97
2018-03-16T21:28:31.591Z,99082.05
2018-03-16T21:31:01.101Z,99081.63
2018-03-16T21:33:30.335Z,99086.31
2018-03-16T21:35:59.492Z,99085.69
2018-03-16T21:38:28.708Z,99087.72
2018-03-16T21:40:57.994Z,99075.25
2018-03-16T21:43:27.437Z,99080.80
2018-03-16T21:45:56.672Z,99089.43
2018-03-16T21:48:25.531Z,99092.75
2018-03-16T21:50:54.847Z,99085.97
2018-03-16T21:53:23.818Z,99089.11
2018-03-16T21:55:53.175Z,99088.28
2018-03-16T21:58:22.383Z,99092.50
2018-03-16T22:00:51.792Z,99083.70
2018-03-16T22:03:36.204Z,99077.73
2018-03-16T22:06:05.104Z,99073.01
2018-03-16T22:08:34.464Z,99077.14
2018-03-16T22:11:03.772Z,99080.35
2018-03-16T22:13:32.957Z,99070.50
2018-03-16T22:16:02.462Z,99076.72
2018-03-16T22:18:31.883Z,99071.59
2018-03-16T22:21:01.442Z,99074.80
2018-03-16T22:23:30.885Z,99083.05
2018-03-16T22:26:00.022Z,99078.65
2018-03-16T22:30:43.239Z,99079.42
2018-03-16T22:33:12.621Z,99075.23
2018-03-16T22:35:41.702Z,99072.92
2018-03-16T22:38:11.134Z,99069.53
2018-03-16T22:40:40.408Z,99074.18
2018-03-16T22:43:09.330Z,99072.99
2018-03-16T22:45:38.418Z,99079.21
2018-03-16T22:48:08.011Z,99077.33
2018-03-16T22:50:37.270Z,99076.34
2018-03-16T22:53:06.427Z,99084.38
2018-03-16T22:55:35.812Z,99076.31
2018-03-16T23:00:21.957Z,99085.74
2018-03-16T23:02:51.482Z,99082.67
2018-03-16T23:05:20.937Z,99082.95
2018-03-16T23:07:49.916Z,99080.61
2018-03-16T23:10:19.278Z,99082.91
2018-03-16T23:12:48.705Z,99077.81
2018-03-16T23:15:18.190Z,99074.12
2018-03-16T23:17:47.672Z,99074.40
2018-03-16T23:20:16.870Z,99077.75
2018-03-16T23:22:46.091Z,99082.22
2018-03-16T23:25:16.790Z,99081.88
2018-03-16T23:27:46.428Z,99076.00
2018-03-16T23:30:15.758Z,99076.08
2018-03-16T23:32:45.630Z,99081.00
2018-03-16T23:35:15.091Z,99076.28
2018-03-16T23:37:45.094Z,99079.15
2018-03-16T23:40:14.166Z,99076.77
2018-03-16T23:42:43.225Z,99083.83
2018-03-16T23:45:12.735Z,99080.69
2018-03-16T23:47:42.155Z,99100.03
2018-03-16T23:50:11.431Z,99095.98
2018-03-16T23:52:40.598Z,99097.30
2018-03-16T23:55:09.736Z,99093.95
2018-03-16T23:57:38.751Z,99101.08
